Buoy 46535

sailwx.info

Track history (hours):
 
Tides and Currents Weather Stations Pressure Air Temp Water Temp Dewpoint Dewpoint Depression Visibility Wind Speed Wind Dir Waves Ship Positions

Drifting buoy 46535

Last reported at 2015-Apr-19 06:50 UTC. Time now 2015-Apr-19 12:34 UTC.
Position N 54°34' W 169°20'.

Barometer 999.4 mb
Water temperature 4.2 ° C

Date/timePositionNaut miles runAvg speedWind from/ knotsBaromVisibWave heightAir tempDewpointWater temp
2015-Apr-19 06:50N 54°34' W 169°20'2 0.8 999.4 4.2
2015-Apr-19 04:50N 54°33' W 169°19'1 0.4 997.2 4.2
2015-Apr-19 02:50N 54°33' W 169°19'1 0.2 995.5 4.2
2015-Apr-18 23:50N 54°34' W 169°18'1 0.1 993.4 4.1
2015-Apr-18 16:50N 54°34' W 169°19'0 0.4 989.8 4.2
2015-Apr-18 15:50N 54°34' W 169°18'2 0.8 989.5 4.2
2015-Apr-18 13:50N 54°34' W 169°16'1 0.4 989.4 4.2
2015-Apr-18 09:50N 54°34' W 169°13'1 0.3 989.9 4.3
2015-Apr-18 04:50N 54°35' W 169°12'1 0.4 990.4 4.4
2015-Apr-18 02:50N 54°35' W 169°11'0 0.2 991.1 4.4
2015-Apr-18 01:50N 54°35' W 169°11'2 0.9 992.0 4.4
2015-Apr-17 23:50N 54°35' W 169°08'2 0.5 993.0 4.4
2015-Apr-17 20:50N 54°35' W 169°06'0 0.2 995.1 4.4
2015-Apr-17 18:50N 54°35' W 169°06'1 0.3 995.7 4.4
2015-Apr-17 16:50N 54°36' W 169°05'0 0.2 996.3 4.4
2015-Apr-17 15:50N 54°36' W 169°05'3 0.3 996.4 4.4
2015-Apr-17 06:50N 54°35' W 168°60'1 1.0 1000.6 4.4
2015-Apr-17 05:50N 54°36' W 168°58'0 0.4 1000.5 4.4
2015-Apr-17 04:50N 54°36' W 168°58'1 0.5 1000.9 4.4
2015-Apr-17 02:50N 54°36' W 168°56'0 0.3 1001.9 4.4
2015-Apr-17 01:50N 54°36' W 168°56'0 0.3 1002.2 4.3
2015-Apr-17 00:50N 54°36' W 168°55'1 0.4 1002.9 4.3
2015-Apr-16 22:50N 54°35' W 168°54'0 0.2 1007.1 4.3
2015-Apr-16 20:50N 54°35' W 168°54'1 0.3 1005.2 4.3
2015-Apr-16 17:50N 54°34' W 168°53'1 0.3 1006.6 4.4
2015-Apr-16 15:50N 54°33' W 168°53'1 0.7 1007.3 4.4
2015-Apr-16 14:50N 54°33' W 168°52'1 1.0 1008.1 4.4
2015-Apr-16 13:50N 54°32' W 168°52'1 0.2 1008.6 4.4
2015-Apr-16 08:50N 54°31' W 168°53'2 0.4 1011.2 4.4
2015-Apr-16 02:50N 54°29' W 168°55'0 0.2 1012.5 4.6
2015-Apr-16 01:50N 54°29' W 168°55'1 0.3 1012.8 4.4
2015-Apr-15 23:50N 54°29' W 168°56'0 0.4 1013.5 4.3
2015-Apr-15 22:50N 54°29' W 168°55'1 0.5 1013.4 4.3
2015-Apr-15 19:50N 54°29' W 168°57'1 0.4 1013.0 4.2
2015-Apr-15 15:50N 54°28' W 168°60'1 0.2 1012.1 4.2
2015-Apr-15 12:50N 54°28' W 168°59'1 0.1 1010.9 4.2
2015-Apr-15 05:50N 54°27' W 169°00'1 1.1 1007.8 4.2
2015-Apr-15 04:50N 54°28' W 169°02'1 0.5 1007.0 4.2
2015-Apr-15 01:50N 54°27' W 169°04'0 0.0 1005.2 4.2
2015-Apr-15 00:50N 54°27' W 169°04'2 0.9 1004.8 4.2
2015-Apr-14 22:50N 54°26' W 169°06'2 0.3 1003.6 4.2
2015-Apr-14 17:50N 54°26' W 169°03'2 1.1 999.2 4.1
2015-Apr-14 15:50N 54°27' W 169°05'2 0.2 997.4 4.1
2015-Apr-14 06:50N 54°25' W 169°04'1 0.3 990.8 4.1
2015-Apr-14 03:50N 54°26' W 169°03'1 0.8 989.3 4.1
2015-Apr-14 02:50N 54°26' W 169°04'0 0.1 989.1 4.2
2015-Apr-14 01:50N 54°26' W 169°04'0 0.4 989.2 4.3
2015-Apr-14 00:50N 54°25' W 169°05'2 0.5 989.3 4.3
2015-Apr-13 21:50N 54°24' W 169°05'3 0.6 991.6 4.4
2015-Apr-13 17:50N 54°21' W 169°04'2 0.5 996.1 4.4
2015-Apr-13 14:50N 54°20' W 169°03'5 0.9 999.9 4.5
2015-Apr-13 08:50N 54°18' W 169°12'4 0.8 1008.5 4.7
2015-Apr-13 03:50N 54°15' W 169°15'2 0.7 1011.4 4.8
2015-Apr-13 00:50N 54°12' W 169°15'1 0.3 1013.0 4.6
2015-Apr-12 22:00N 54°13' W 169°15'1 0.5 1013.1 4.3
2015-Apr-12 19:50N 54°12' W 169°17'0 0.0 1012.8 4.3
2015-Apr-12 18:50N 54°12' W 169°17'0 0.2 1012.7 4.4
2015-Apr-12 16:50N 54°12' W 169°17'1 0.7 1012.0 4.4
2015-Apr-12 14:50N 54°11' W 169°17'1 0.2 1011.8 4.3
2015-Apr-12 11:50N 54°10' W 169°18'0 0.0 1010.8 4.3
2015-Apr-12 10:50N 54°10' W 169°18'1 0.2 1010.1 4.3
2015-Apr-12 06:50N 54°10' W 169°19'1 0.7 1007.3 4.3
2015-Apr-12 05:50N 54°10' W 169°20'1 0.3 1006.6 4.3
2015-Apr-12 02:50N 54°10' W 169°22'1 0.7 1006.2 4.2
2015-Apr-12 01:50N 54°10' W 169°23'1 0.8 1006.7 4.2
2015-Apr-12 00:50N 54°10' W 169°24'0 0.1 1006.6 4.2
2015-Apr-11 22:50N 54°10' W 169°24'0 0.0 1007.0 4.2
2015-Apr-11 22:00N 54°10' W 169°24'1 0.9 1007.1 4.2
2015-Apr-11 20:50N 54°11' W 169°25'0 0.4 1007.7 4.2
2015-Apr-11 19:50N 54°11' W 169°25'0 0.2 1007.6 4.2
2015-Apr-11 17:50N 54°11' W 169°25'0 0.3 1007.3 4.2
2015-Apr-11 16:50N 54°11' W 169°25'2 0.9 1007.5 4.2
2015-Apr-11 14:50N 54°13' W 169°27'2 0.7 1007.5 4.2
2015-Apr-11 11:50N 54°12' W 169°30'0 0.0 1008.2 4.2
2015-Apr-11 08:50N 54°12' W 169°30'0 0.5 1009.2 4.2
2015-Apr-11 07:50N 54°12' W 169°31'0 0.2 1009.4 4.2
2015-Apr-11 04:50N 54°12' W 169°32'1 0.6 1010.0 4.2
2015-Apr-11 03:50N 54°12' W 169°33'1 0.6 1010.4 4.2
2015-Apr-11 02:50N 54°12' W 169°33'1 1.0 1010.7 4.2
2015-Apr-11 01:50N 54°13' W 169°34'0 0.2 1010.5 4.2
2015-Apr-11 00:50N 54°13' W 169°34'1 1.2 1010.7 4.2
2015-Apr-10 23:50N 54°14' W 169°36'2 1.2 1010.5 4.2
2015-Apr-10 22:00N 54°13' W 169°39'1 0.4 1010.7 4.1
2015-Apr-10 19:50N 54°12' W 169°41'0 0.0 1010.7 4.1
2015-Apr-10 18:50N 54°12' W 169°41'1 0.4 1011.3 4.1
2015-Apr-10 16:50N 54°12' W 169°42'0 0.3 1012.4 4.1
2015-Apr-10 15:50N 54°12' W 169°41'1 0.8 1012.8 4.1
2015-Apr-10 14:50N 54°12' W 169°42'0 0.0 1012.8 4.1
2015-Apr-10 13:50N 54°12' W 169°42'1 0.2 1012.9 4.1
2015-Apr-10 08:50N 54°12' W 169°44'1 0.6 1011.8 4.1
2015-Apr-10 07:50N 54°12' W 169°45'1 0.5 1011.4 4.1
2015-Apr-10 06:50N 54°11' W 169°45'1 0.5 1011.0 4.1
2015-Apr-10 05:50N 54°12' W 169°45'0 0.1 1010.5 4.1
2015-Apr-10 04:50N 54°12' W 169°45'0 0.1 1010.1 4.0
2015-Apr-10 02:50N 54°12' W 169°44'0 0.5 1009.1 4.1
2015-Apr-10 01:50N 54°12' W 169°45'1 0.1 1008.6 4.0
2015-Apr-09 17:50N 54°12' W 169°46'0 0.3 1006.4 4.0
2015-Apr-09 16:50N 54°12' W 169°47'1 0.6 1005.8 4.0
2015-Apr-09 15:50N 54°12' W 169°46'1 0.7 1005.3 4.0
2015-Apr-09 13:50N 54°13' W 169°47'   1003.7 4.0
Track history (hours):
 
Tides and Currents Weather Stations Pressure Air Temp Water Temp Dewpoint Dewpoint Depression Visibility Wind Speed Wind Dir Waves Ship Positions

Drifting buoy 46535

Last reported at 2015-Apr-19 06:50 UTC. Time now 2015-Apr-19 12:34 UTC.
Position N 54°34' W 169°20'.

Barometer 999.4 mb
Water temperature 4.2 ° C

Date/timePositionNaut miles runAvg speedWind from/ knotsBaromVisibWave heightAir tempDewpointWater temp
2015-Apr-19 06:50N 54°34' W 169°20'2 0.8 999.4 4.2
2015-Apr-19 04:50N 54°33' W 169°19'1 0.4 997.2 4.2
2015-Apr-19 02:50N 54°33' W 169°19'1 0.2 995.5 4.2
2015-Apr-18 23:50N 54°34' W 169°18'1 0.1 993.4 4.1
2015-Apr-18 16:50N 54°34' W 169°19'0 0.4 989.8 4.2
2015-Apr-18 15:50N 54°34' W 169°18'2 0.8 989.5 4.2
2015-Apr-18 13:50N 54°34' W 169°16'1 0.4 989.4 4.2
2015-Apr-18 09:50N 54°34' W 169°13'1 0.3 989.9 4.3
2015-Apr-18 04:50N 54°35' W 169°12'1 0.4 990.4 4.4
2015-Apr-18 02:50N 54°35' W 169°11'0 0.2 991.1 4.4
2015-Apr-18 01:50N 54°35' W 169°11'2 0.9 992.0 4.4
2015-Apr-17 23:50N 54°35' W 169°08'2 0.5 993.0 4.4
2015-Apr-17 20:50N 54°35' W 169°06'0 0.2 995.1 4.4
2015-Apr-17 18:50N 54°35' W 169°06'1 0.3 995.7 4.4
2015-Apr-17 16:50N 54°36' W 169°05'0 0.2 996.3 4.4
2015-Apr-17 15:50N 54°36' W 169°05'3 0.3 996.4 4.4
2015-Apr-17 06:50N 54°35' W 168°60'1 1.0 1000.6 4.4
2015-Apr-17 05:50N 54°36' W 168°58'0 0.4 1000.5 4.4
2015-Apr-17 04:50N 54°36' W 168°58'1 0.5 1000.9 4.4
2015-Apr-17 02:50N 54°36' W 168°56'0 0.3 1001.9 4.4
2015-Apr-17 01:50N 54°36' W 168°56'0 0.3 1002.2 4.3
2015-Apr-17 00:50N 54°36' W 168°55'1 0.4 1002.9 4.3
2015-Apr-16 22:50N 54°35' W 168°54'0 0.2 1007.1 4.3
2015-Apr-16 20:50N 54°35' W 168°54'1 0.3 1005.2 4.3
2015-Apr-16 17:50N 54°34' W 168°53'1 0.3 1006.6 4.4
2015-Apr-16 15:50N 54°33' W 168°53'1 0.7 1007.3 4.4
2015-Apr-16 14:50N 54°33' W 168°52'1 1.0 1008.1 4.4
2015-Apr-16 13:50N 54°32' W 168°52'1 0.2 1008.6 4.4
2015-Apr-16 08:50N 54°31' W 168°53'2 0.4 1011.2 4.4
2015-Apr-16 02:50N 54°29' W 168°55'0 0.2 1012.5 4.6
2015-Apr-16 01:50N 54°29' W 168°55'1 0.3 1012.8 4.4
2015-Apr-15 23:50N 54°29' W 168°56'0 0.4 1013.5 4.3
2015-Apr-15 22:50N 54°29' W 168°55'1 0.5 1013.4 4.3
2015-Apr-15 19:50N 54°29' W 168°57'1 0.4 1013.0 4.2
2015-Apr-15 15:50N 54°28' W 168°60'1 0.2 1012.1 4.2
2015-Apr-15 12:50N 54°28' W 168°59'1 0.1 1010.9 4.2
2015-Apr-15 05:50N 54°27' W 169°00'1 1.1 1007.8 4.2
2015-Apr-15 04:50N 54°28' W 169°02'1 0.5 1007.0 4.2
2015-Apr-15 01:50N 54°27' W 169°04'0 0.0 1005.2 4.2
2015-Apr-15 00:50N 54°27' W 169°04'2 0.9 1004.8 4.2
2015-Apr-14 22:50N 54°26' W 169°06'2 0.3 1003.6 4.2
2015-Apr-14 17:50N 54°26' W 169°03'2 1.1 999.2 4.1
2015-Apr-14 15:50N 54°27' W 169°05'2 0.2 997.4 4.1
2015-Apr-14 06:50N 54°25' W 169°04'1 0.3 990.8 4.1
2015-Apr-14 03:50N 54°26' W 169°03'1 0.8 989.3 4.1
2015-Apr-14 02:50N 54°26' W 169°04'0 0.1 989.1 4.2
2015-Apr-14 01:50N 54°26' W 169°04'0 0.4 989.2 4.3
2015-Apr-14 00:50N 54°25' W 169°05'2 0.5 989.3 4.3
2015-Apr-13 21:50N 54°24' W 169°05'3 0.6 991.6 4.4
2015-Apr-13 17:50N 54°21' W 169°04'2 0.5 996.1 4.4
2015-Apr-13 14:50N 54°20' W 169°03'5 0.9 999.9 4.5
2015-Apr-13 08:50N 54°18' W 169°12'4 0.8 1008.5 4.7
2015-Apr-13 03:50N 54°15' W 169°15'2 0.7 1011.4 4.8
2015-Apr-13 00:50N 54°12' W 169°15'1 0.3 1013.0 4.6
2015-Apr-12 22:00N 54°13' W 169°15'1 0.5 1013.1 4.3
2015-Apr-12 19:50N 54°12' W 169°17'0 0.0 1012.8 4.3
2015-Apr-12 18:50N 54°12' W 169°17'0 0.2 1012.7 4.4
2015-Apr-12 16:50N 54°12' W 169°17'1 0.7 1012.0 4.4
2015-Apr-12 14:50N 54°11' W 169°17'1 0.2 1011.8 4.3
2015-Apr-12 11:50N 54°10' W 169°18'0 0.0 1010.8 4.3
2015-Apr-12 10:50N 54°10' W 169°18'1 0.2 1010.1 4.3
2015-Apr-12 06:50N 54°10' W 169°19'1 0.7 1007.3 4.3
2015-Apr-12 05:50N 54°10' W 169°20'1 0.3 1006.6 4.3
2015-Apr-12 02:50N 54°10' W 169°22'1 0.7 1006.2 4.2
2015-Apr-12 01:50N 54°10' W 169°23'1 0.8 1006.7 4.2
2015-Apr-12 00:50N 54°10' W 169°24'0 0.1 1006.6 4.2
2015-Apr-11 22:50N 54°10' W 169°24'0 0.0 1007.0 4.2
2015-Apr-11 22:00N 54°10' W 169°24'1 0.9 1007.1 4.2
2015-Apr-11 20:50N 54°11' W 169°25'0 0.4 1007.7 4.2
2015-Apr-11 19:50N 54°11' W 169°25'0 0.2 1007.6 4.2
2015-Apr-11 17:50N 54°11' W 169°25'0 0.3 1007.3 4.2
2015-Apr-11 16:50N 54°11' W 169°25'2 0.9 1007.5 4.2
2015-Apr-11 14:50N 54°13' W 169°27'2 0.7 1007.5 4.2
2015-Apr-11 11:50N 54°12' W 169°30'0 0.0 1008.2 4.2
2015-Apr-11 08:50N 54°12' W 169°30'0 0.5 1009.2 4.2
2015-Apr-11 07:50N 54°12' W 169°31'0 0.2 1009.4 4.2
2015-Apr-11 04:50N 54°12' W 169°32'1 0.6 1010.0 4.2
2015-Apr-11 03:50N 54°12' W 169°33'1 0.6 1010.4 4.2
2015-Apr-11 02:50N 54°12' W 169°33'1 1.0 1010.7 4.2
2015-Apr-11 01:50N 54°13' W 169°34'0 0.2 1010.5 4.2
2015-Apr-11 00:50N 54°13' W 169°34'1 1.2 1010.7 4.2
2015-Apr-10 23:50N 54°14' W 169°36'2 1.2 1010.5 4.2
2015-Apr-10 22:00N 54°13' W 169°39'1 0.4 1010.7 4.1
2015-Apr-10 19:50N 54°12' W 169°41'0 0.0 1010.7 4.1
2015-Apr-10 18:50N 54°12' W 169°41'1 0.4 1011.3 4.1
2015-Apr-10 16:50N 54°12' W 169°42'0 0.3 1012.4 4.1
2015-Apr-10 15:50N 54°12' W 169°41'1 0.8 1012.8 4.1
2015-Apr-10 14:50N 54°12' W 169°42'0 0.0 1012.8 4.1
2015-Apr-10 13:50N 54°12' W 169°42'1 0.2 1012.9 4.1
2015-Apr-10 08:50N 54°12' W 169°44'1 0.6 1011.8 4.1
2015-Apr-10 07:50N 54°12' W 169°45'1 0.5 1011.4 4.1
2015-Apr-10 06:50N 54°11' W 169°45'1 0.5 1011.0 4.1
2015-Apr-10 05:50N 54°12' W 169°45'0 0.1 1010.5 4.1
2015-Apr-10 04:50N 54°12' W 169°45'0 0.1 1010.1 4.0
2015-Apr-10 02:50N 54°12' W 169°44'0 0.5 1009.1 4.1
2015-Apr-10 01:50N 54°12' W 169°45'1 0.1 1008.6 4.0
2015-Apr-09 17:50N 54°12' W 169°46'0 0.3 1006.4 4.0
2015-Apr-09 16:50N 54°12' W 169°47'1 0.6 1005.8 4.0
2015-Apr-09 15:50N 54°12' W 169°46'1 0.7 1005.3 4.0
2015-Apr-09 13:50N 54°13' W 169°47'   1003.7 4.0

Dump ship's entire track history